sensor_id;sensor_type;location;lat;lon;timestamp;pressure;altitude;pressure_sealevel;temperature;humidity
21357;BME280;10836;53.068;18.234;2022-10-15T00:01:20;100754.53;;;11.71;100.00
21357;BME280;10836;53.068;18.234;2022-10-15T00:03:47;100748.03;;;11.57;100.00
21357;BME280;10836;53.068;18.234;2022-10-15T00:06:16;100755.63;;;11.70;100.00
21357;BME280;10836;53.068;18.234;2022-10-15T00:08:45;100757.88;;;11.58;100.00
21357;BME280;10836;53.068;18.234;2022-10-15T00:11:15;100743.13;;;11.49;100.00
21357;BME280;10836;53.068;18.234;2022-10-15T00:13:44;100732.75;;;11.51;100.00
21357;BME280;10836;53.068;18.234;2022-10-15T00:16:14;100730.03;;;11.46;100.00
21357;BME280;10836;53.068;18.234;2022-10-15T00:18:42;100735.78;;;11.34;100.00
21357;BME280;10836;53.068;18.234;2022-10-15T00:21:12;100727.28;;;11.51;100.00
21357;BME280;10836;53.068;18.234;2022-10-15T00:23:40;100731.13;;;11.45;100.00
21357;BME280;10836;53.068;18.234;2022-10-15T00:26:26;100718.00;;;11.37;100.00
21357;BME280;10836;53.068;18.234;2022-10-15T00:28:57;100726.53;;;11.25;100.00
21357;BME280;10836;53.068;18.234;2022-10-15T00:31:26;100724.03;;;11.28;100.00
21357;BME280;10836;53.068;18.234;2022-10-15T00:33:56;100726.75;;;11.39;100.00
21357;BME280;10836;53.068;18.234;2022-10-15T00:36:26;100730.03;;;11.46;100.00
21357;BME280;10836;53.068;18.234;2022-10-15T00:38:54;100737.16;;;11.37;100.00
21357;BME280;10836;53.068;18.234;2022-10-15T00:41:31;100734.44;;;11.26;100.00
21357;BME280;10836;53.068;18.234;2022-10-15T00:46:49;100725.75;;;11.09;100.00
21357;BME280;10836;53.068;18.234;2022-10-15T00:49:22;100725.19;;;11.12;100.00
21357;BME280;10836;53.068;18.234;2022-10-15T00:52:03;100716.47;;;11.05;100.00
21357;BME280;10836;53.068;18.234;2022-10-15T00:54:33;100723.56;;;11.06;100.00
21357;BME280;10836;53.068;18.234;2022-10-15T00:57:05;100721.66;;;11.07;100.00
21357;BME280;10836;53.068;18.234;2022-10-15T00:59:36;100710.19;;;10.94;100.00
21357;BME280;10836;53.068;18.234;2022-10-15T01:02:05;100714.56;;;10.90;100.00
21357;BME280;10836;53.068;18.234;2022-10-15T01:04:34;100712.66;;;10.86;100.00
21357;BME280;10836;53.068;18.234;2022-10-15T01:07:01;100716.50;;;10.80;100.00
21357;BME280;10836;53.068;18.234;2022-10-15T01:09:28;100718.69;;;10.68;100.00
21357;BME280;10836;53.068;18.234;2022-10-15T01:11:55;100714.88;;;10.74;100.00
21357;BME280;10836;53.068;18.234;2022-10-15T01:14:34;100710.50;;;10.57;100.00
21357;BME280;10836;53.068;18.234;2022-10-15T01:17:12;100721.44;;;10.57;100.00
21357;BME280;10836;53.068;18.234;2022-10-15T01:20:19;100718.13;;;10.45;100.00
21357;BME280;10836;53.068;18.234;2022-10-15T01:23:18;100709.97;;;10.30;100.00
21357;BME280;10836;53.068;18.234;2022-10-15T01:26:17;100700.66;;;10.21;100.00
21357;BME280;10836;53.068;18.234;2022-10-15T01:31:59;100692.94;;;10.02;100.00
21357;BME280;10836;53.068;18.234;2022-10-15T01:37:17;100694.03;;;9.86;100.00
21357;BME280;10836;53.068;18.234;2022-10-15T01:39:51;100696.50;;;9.93;100.00
21357;BME280;10836;53.068;18.234;2022-10-15T01:42:27;100691.84;;;9.88;100.00
21357;BME280;10836;53.068;18.234;2022-10-15T01:45:00;100684.22;;;9.90;100.00
21357;BME280;10836;53.068;18.234;2022-10-15T01:47:47;100690.19;;;9.77;100.00
21357;BME280;10836;53.068;18.234;2022-10-15T01:50:18;100689.09;;;9.78;100.00
21357;BME280;10836;53.068;18.234;2022-10-15T01:52:48;100683.38;;;9.80;100.00
21357;BME280;10836;53.068;18.234;2022-10-15T01:55:18;100686.38;;;9.78;100.00
21357;BME280;10836;53.068;18.234;2022-10-15T01:57:47;100697.28;;;9.78;100.00
21357;BME280;10836;53.068;18.234;2022-10-15T02:00:15;100696.94;;;9.64;100.00
21357;BME280;10836;53.068;18.234;2022-10-15T02:02:42;100697.22;;;9.68;100.00
21357;BME280;10836;53.068;18.234;2022-10-15T02:05:16;100698.31;;;9.62;100.00
21357;BME280;10836;53.068;18.234;2022-10-15T02:11:08;100689.56;;;9.50;100.00
21357;BME280;10836;53.068;18.234;2022-10-15T02:14:12;100686.22;;;9.38;100.00
21357;BME280;10836;53.068;18.234;2022-10-15T02:17:08;100690.00;;;9.31;100.00
21357;BME280;10836;53.068;18.234;2022-10-15T02:22:08;100676.31;;;9.21;100.00
21357;BME280;10836;53.068;18.234;2022-10-15T02:24:48;100671.63;;;9.12;100.00
21357;BME280;10836;53.068;18.234;2022-10-15T02:27:23;100670.28;;;9.14;100.00
21357;BME280;10836;53.068;18.234;2022-10-15T02:29:52;100668.09;;;9.11;100.00
21357;BME280;10836;53.068;18.234;2022-10-15T02:32:21;100654.47;;;9.06;100.00
21357;BME280;10836;53.068;18.234;2022-10-15T02:34:50;100665.34;;;9.01;100.00
21357;BME280;10836;53.068;18.234;2022-10-15T02:37:21;100651.69;;;8.96;100.00
21357;BME280;10836;53.068;18.234;2022-10-15T02:39:48;100656.31;;;8.95;100.00
21357;BME280;10836;53.068;18.234;2022-10-15T02:42:16;100660.94;;;8.95;100.00
21357;BME280;10836;53.068;18.234;2022-10-15T02:44:46;100656.56;;;8.89;100.00
21357;BME280;10836;53.068;18.234;2022-10-15T02:47:13;100656.03;;;8.92;100.00
21357;BME280;10836;53.068;18.234;2022-10-15T02:49:40;100656.06;;;8.97;100.00
21357;BME280;10836;53.068;18.234;2022-10-15T02:52:07;100653.88;;;8.94;100.00
21357;BME280;10836;53.068;18.234;2022-10-15T02:54:34;100655.72;;;8.88;100.00
21357;BME280;10836;53.068;18.234;2022-10-15T02:57:01;100653.78;;;8.84;100.00
21357;BME280;10836;53.068;18.234;2022-10-15T02:59:28;100645.53;;;8.68;100.00
21357;BME280;10836;53.068;18.234;2022-10-15T03:01:55;100656.41;;;8.68;100.00
21357;BME280;10836;53.068;18.234;2022-10-15T03:04:23;100655.84;;;8.66;100.00
21357;BME280;10836;53.068;18.234;2022-10-15T03:06:50;100648.81;;;8.71;100.00
21357;BME280;10836;53.068;18.234;2022-10-15T03:09:17;100642.59;;;8.80;100.00
21357;BME280;10836;53.068;18.234;2022-10-15T03:11:44;100645.59;;;8.79;100.00
21357;BME280;10836;53.068;18.234;2022-10-15T03:14:11;100641.25;;;8.83;100.00
21357;BME280;10836;53.068;18.234;2022-10-15T03:16:38;100639.91;;;8.85;100.00
21357;BME280;10836;53.068;18.234;2022-10-15T03:19:05;100636.88;;;8.77;100.00
21357;BME280;10836;53.068;18.234;2022-10-15T03:21:32;100643.94;;;8.78;100.00
21357;BME280;10836;53.068;18.234;2022-10-15T03:24:08;100633.63;;;8.80;100.00
21357;BME280;10836;53.068;18.234;2022-10-15T03:26:35;100644.03;;;8.88;100.00
21357;BME280;10836;53.068;18.234;2022-10-15T03:29:02;100641.84;;;8.90;100.00
21357;BME280;10836;53.068;18.234;2022-10-15T03:31:41;100637.44;;;8.79;100.00
21357;BME280;10836;53.068;18.234;2022-10-15T03:34:09;100633.31;;;8.76;100.00
21357;BME280;10836;53.068;18.234;2022-10-15T03:36:36;100631.72;;;8.80;100.00
21357;BME280;10836;53.068;18.234;2022-10-15T03:39:06;100628.13;;;8.75;100.00
21357;BME280;10836;53.068;18.234;2022-10-15T03:41:34;100625.94;;;8.72;100.00
21357;BME280;10836;53.068;18.234;2022-10-15T03:44:03;100623.19;;;8.61;100.00
21357;BME280;10836;53.068;18.234;2022-10-15T03:46:31;100623.78;;;8.74;100.00
21357;BME280;10836;53.068;18.234;2022-10-15T03:48:59;100612.03;;;8.68;100.00
21357;BME280;10836;53.068;18.234;2022-10-15T03:51:26;100615.56;;;8.63;100.00
21357;BME280;10836;53.068;18.234;2022-10-15T03:54:03;100610.34;;;8.57;100.00
21357;BME280;10836;53.068;18.234;2022-10-15T03:56:33;100605.09;;;8.45;100.00
21357;BME280;10836;53.068;18.234;2022-10-15T03:59:17;100599.50;;;8.30;100.00
21357;BME280;10836;53.068;18.234;2022-10-15T04:01:53;100603.81;;;8.26;100.00
21357;BME280;10836;53.068;18.234;2022-10-15T04:04:20;100604.91;;;8.25;100.00
21357;BME280;10836;53.068;18.234;2022-10-15T04:06:47;100601.09;;;8.21;100.00
21357;BME280;10836;53.068;18.234;2022-10-15T04:09:16;100599.19;;;8.21;100.00
21357;BME280;10836;53.068;18.234;2022-10-15T04:11:43;100611.97;;;8.21;100.00
21357;BME280;10836;53.068;18.234;2022-10-15T04:14:10;100608.66;;;8.14;100.00
21357;BME280;10836;53.068;18.234;2022-10-15T04:16:37;100608.69;;;8.19;100.00
21357;BME280;10836;53.068;18.234;2022-10-15T04:19:12;100615.78;;;8.20;100.00
21357;BME280;10836;53.068;18.234;2022-10-15T04:21:40;100622.34;;;8.29;100.00
21357;BME280;10836;53.068;18.234;2022-10-15T04:24:16;100618.00;;;8.28;100.00
21357;BME280;10836;53.068;18.234;2022-10-15T04:26:43;100621.78;;;8.27;100.00
21357;BME280;10836;53.068;18.234;2022-10-15T04:29:10;100623.75;;;7.99;100.00
21357;BME280;10836;53.068;18.234;2022-10-15T04:31:38;100622.22;;;8.09;100.00
21357;BME280;10836;53.068;18.234;2022-10-15T04:34:04;100617.31;;;8.11;100.00
21357;BME280;10836;53.068;18.234;2022-10-15T04:36:31;100627.13;;;8.12;100.00
21357;BME280;10836;53.068;18.234;2022-10-15T04:39:05;100620.53;;;8.02;100.00
21357;BME280;10836;53.068;18.234;2022-10-15T04:41:40;100609.84;;;7.96;100.00
21357;BME280;10836;53.068;18.234;2022-10-15T04:44:13;100599.69;;;7.86;100.00
21357;BME280;10836;53.068;18.234;2022-10-15T04:46:45;100591.31;;;7.61;100.00
21357;BME280;10836;53.068;18.234;2022-10-15T04:49:35;100592.63;;;7.85;100.00
21357;BME280;10836;53.068;18.234;2022-10-15T04:52:08;100594.78;;;7.83;100.00
21357;BME280;10836;53.068;18.234;2022-10-15T04:54:41;100599.19;;;7.89;100.00
21357;BME280;10836;53.068;18.234;2022-10-15T04:57:08;100596.59;;;8.05;100.00
21357;BME280;10836;53.068;18.234;2022-10-15T04:59:36;100596.41;;;7.84;100.00
21357;BME280;10836;53.068;18.234;2022-10-15T05:02:35;100601.34;;;7.87;100.00
21357;BME280;10836;53.068;18.234;2022-10-15T05:05:32;100599.13;;;7.79;100.00
21357;BME280;10836;53.068;18.234;2022-10-15T05:08:02;100598.06;;;7.85;100.00
21357;BME280;10836;53.068;18.234;2022-10-15T05:10:38;100598.19;;;7.68;100.00
21357;BME280;10836;53.068;18.234;2022-10-15T05:13:08;100589.84;;;7.80;100.00
21357;BME280;10836;53.068;18.234;2022-10-15T05:15:37;100598.56;;;7.82;100.00
21357;BME280;10836;53.068;18.234;2022-10-15T05:18:06;100595.06;;;7.87;100.00
21357;BME280;10836;53.068;18.234;2022-10-15T05:20:46;100591.53;;;7.86;100.00
21357;BME280;10836;53.068;18.234;2022-10-15T05:23:16;100590.97;;;7.84;100.00
21357;BME280;10836;53.068;18.234;2022-10-15T05:25:52;100584.97;;;7.82;100.00
21357;BME280;10836;53.068;18.234;2022-10-15T05:28:23;100584.50;;;7.90;100.00
21357;BME280;10836;53.068;18.234;2022-10-15T05:30:49;100581.31;;;7.98;100.00
21357;BME280;10836;53.068;18.234;2022-10-15T05:33:17;100576.91;;;7.92;100.00
21357;BME280;10836;53.068;18.234;2022-10-15T05:35:43;100581.22;;;7.88;100.00
21357;BME280;10836;53.068;18.234;2022-10-15T05:38:10;100586.66;;;7.88;100.00
21357;BME280;10836;53.068;18.234;2022-10-15T05:40:38;100570.97;;;7.95;100.00
21357;BME280;10836;53.068;18.234;2022-10-15T05:43:11;100574.25;;;7.97;100.00
21357;BME280;10836;53.068;18.234;2022-10-15T05:45:39;100577.56;;;8.05;100.00
21357;BME280;10836;53.068;18.234;2022-10-15T05:48:06;100575.53;;;8.22;100.00
21357;BME280;10836;53.068;18.234;2022-10-15T05:50:34;100576.59;;;8.53;100.00
21357;BME280;10836;53.068;18.234;2022-10-15T05:53:03;100574.50;;;8.75;100.00
21357;BME280;10836;53.068;18.234;2022-10-15T05:55:36;100567.06;;;9.08;100.00
21357;BME280;10836;53.068;18.234;2022-10-15T05:58:04;100580.50;;;9.40;100.00
21357;BME280;10836;53.068;18.234;2022-10-15T06:00:31;100578.34;;;9.52;100.00
21357;BME280;10836;53.068;18.234;2022-10-15T06:02:58;100581.31;;;9.45;100.00
21357;BME280;10836;53.068;18.234;2022-10-15T06:05:25;100587.03;;;9.44;100.00
21357;BME280;10836;53.068;18.234;2022-10-15T06:07:53;100577.22;;;9.43;100.00
21357;BME280;10836;53.068;18.234;2022-10-15T06:10:20;100583.72;;;9.26;100.00
21357;BME280;10836;53.068;18.234;2022-10-15T06:12:50;100585.47;;;9.73;100.00
21357;BME280;10836;53.068;18.234;2022-10-15T06:15:17;100581.34;;;9.71;100.00
21357;BME280;10836;53.068;18.234;2022-10-15T06:17:44;100580.56;;;9.85;100.00
21357;BME280;10836;53.068;18.234;2022-10-15T06:20:12;100582.78;;;10.24;100.00
21357;BME280;10836;53.068;18.234;2022-10-15T06:22:39;100594.56;;;11.14;100.00
21357;BME280;10836;53.068;18.234;2022-10-15T06:25:06;100596.13;;;12.72;100.00
21357;BME280;10836;53.068;18.234;2022-10-15T06:27:33;100598.72;;;12.87;99.03
21357;BME280;10836;53.068;18.234;2022-10-15T06:30:00;100595.78;;;13.02;100.00
21357;BME280;10836;53.068;18.234;2022-10-15T06:32:27;100594.59;;;12.60;98.89
21357;BME280;10836;53.068;18.234;2022-10-15T06:34:54;100590.19;;;12.07;100.00
21357;BME280;10836;53.068;18.234;2022-10-15T06:37:21;100579.06;;;11.93;100.00
21357;BME280;10836;53.068;18.234;2022-10-15T06:39:49;100586.63;;;11.67;100.00
21357;BME280;10836;53.068;18.234;2022-10-15T06:42:16;100588.13;;;11.44;100.00
21357;BME280;10836;53.068;18.234;2022-10-15T06:44:46;100583.22;;;11.36;100.00
21357;BME280;10836;53.068;18.234;2022-10-15T06:47:15;100591.81;;;11.19;100.00
21357;BME280;10836;53.068;18.234;2022-10-15T06:49:43;100583.09;;;11.07;100.00
21357;BME280;10836;53.068;18.234;2022-10-15T06:52:10;100590.69;;;11.25;100.00
21357;BME280;10836;53.068;18.234;2022-10-15T06:54:37;100577.31;;;11.24;100.00
21357;BME280;10836;53.068;18.234;2022-10-15T06:57:06;100582.06;;;10.88;100.00
21357;BME280;10836;53.068;18.234;2022-10-15T06:59:33;100582.69;;;10.70;100.00
21357;BME280;10836;53.068;18.234;2022-10-15T07:02:09;100580.72;;;10.85;100.00
21357;BME280;10836;53.068;18.234;2022-10-15T07:04:36;100583.66;;;11.04;100.00
21357;BME280;10836;53.068;18.234;2022-10-15T07:07:03;100588.56;;;11.07;100.00
21357;BME280;10836;53.068;18.234;2022-10-15T07:09:30;100593.78;;;11.04;100.00
21357;BME280;10836;53.068;18.234;2022-10-15T07:11:57;100593.22;;;11.07;100.00
21357;BME280;10836;53.068;18.234;2022-10-15T07:14:25;100586.94;;;11.06;100.00
21357;BME280;10836;53.068;18.234;2022-10-15T07:16:52;100584.19;;;11.11;100.00
21357;BME280;10836;53.068;18.234;2022-10-15T07:19:21;100579.84;;;11.05;100.00
21357;BME280;10836;53.068;18.234;2022-10-15T07:21:48;100596.19;;;11.15;100.00
21357;BME280;10836;53.068;18.234;2022-10-15T07:24:16;100593.94;;;11.27;100.00
21357;BME280;10836;53.068;18.234;2022-10-15T07:26:46;100596.19;;;11.20;100.00
21357;BME280;10836;53.068;18.234;2022-10-15T07:29:13;100588.94;;;11.45;100.00
21357;BME280;10836;53.068;18.234;2022-10-15T07:31:40;100596.56;;;11.48;100.00
21357;BME280;10836;53.068;18.234;2022-10-15T07:34:07;100596.59;;;11.43;100.00
21357;BME280;10836;53.068;18.234;2022-10-15T07:36:34;100602.13;;;11.27;100.00
21357;BME280;10836;53.068;18.234;2022-10-15T07:39:00;100601.00;;;11.39;100.00
21357;BME280;10836;53.068;18.234;2022-10-15T07:41:29;100592.25;;;11.37;100.00
21357;BME280;10836;53.068;18.234;2022-10-15T07:43:56;100594.63;;;11.53;100.00
21357;BME280;10836;53.068;18.234;2022-10-15T07:46:23;100591.94;;;11.43;100.00
21357;BME280;10836;53.068;18.234;2022-10-15T07:48:54;100598.59;;;11.71;100.00
21357;BME280;10836;53.068;18.234;2022-10-15T07:51:21;100598.59;;;11.71;100.00
21357;BME280;10836;53.068;18.234;2022-10-15T07:53:47;100592.56;;;11.74;100.00
21357;BME280;10836;53.068;18.234;2022-10-15T07:56:15;100593.00;;;11.96;100.00
21357;BME280;10836;53.068;18.234;2022-10-15T07:58:42;100590.09;;;12.17;100.00
21357;BME280;10836;53.068;18.234;2022-10-15T08:01:19;100592.41;;;12.05;100.00
21357;BME280;10836;53.068;18.234;2022-10-15T08:03:47;100585.09;;;12.24;100.00
21357;BME280;10836;53.068;18.234;2022-10-15T08:06:14;100593.88;;;12.21;100.00
21357;BME280;10836;53.068;18.234;2022-10-15T08:08:41;100593.63;;;12.17;100.00
21357;BME280;10836;53.068;18.234;2022-10-15T08:11:12;100593.09;;;12.49;100.00
21357;BME280;10836;53.068;18.234;2022-10-15T08:13:40;100589.13;;;12.60;100.00
21357;BME280;10836;53.068;18.234;2022-10-15T08:16:09;100590.19;;;12.64;100.00
21357;BME280;10836;53.068;18.234;2022-10-15T08:18:37;100597.28;;;12.42;100.00
21357;BME280;10836;53.068;18.234;2022-10-15T08:21:05;100593.94;;;12.74;100.00
21357;BME280;10836;53.068;18.234;2022-10-15T08:23:34;100597.66;;;13.30;100.00
21357;BME280;10836;53.068;18.234;2022-10-15T08:26:01;100590.88;;;13.84;97.70
21357;BME280;10836;53.068;18.234;2022-10-15T08:28:30;100599.56;;;14.56;95.91
21357;BME280;10836;53.068;18.234;2022-10-15T08:30:58;100594.66;;;15.49;89.53
21357;BME280;10836;53.068;18.234;2022-10-15T08:33:32;100594.47;;;15.46;86.11
21357;BME280;10836;53.068;18.234;2022-10-15T08:35:59;100594.59;;;14.58;90.10
21357;BME280;10836;53.068;18.234;2022-10-15T08:38:26;100602.53;;;15.28;87.69
21357;BME280;10836;53.068;18.234;2022-10-15T08:40:55;100601.94;;;15.59;88.09
21357;BME280;10836;53.068;18.234;2022-10-15T08:46:04;100591.13;;;14.80;89.13
21357;BME280;10836;53.068;18.234;2022-10-15T08:48:36;100594.19;;;14.65;90.61
21357;BME280;10836;53.068;18.234;2022-10-15T08:51:09;100592.75;;;14.54;91.56
21357;BME280;10836;53.068;18.234;2022-10-15T08:53:40;100589.72;;;14.83;91.75
21357;BME280;10836;53.068;18.234;2022-10-15T08:56:23;100591.66;;;14.96;90.86
21357;BME280;10836;53.068;18.234;2022-10-15T08:59:01;100587.38;;;14.62;92.10
21357;BME280;10836;53.068;18.234;2022-10-15T09:01:47;100596.22;;;14.59;91.76
21357;BME280;10836;53.068;18.234;2022-10-15T09:04:30;100592.38;;;14.88;89.55
21357;BME280;10836;53.068;18.234;2022-10-15T09:07:06;100590.03;;;14.68;91.83
21357;BME280;10836;53.068;18.234;2022-10-15T09:09:49;100590.53;;;14.97;89.90
21357;BME280;10836;53.068;18.234;2022-10-15T09:15:11;100602.91;;;14.53;91.52
21357;BME280;10836;53.068;18.234;2022-10-15T09:17:40;100597.44;;;14.53;90.59
21357;BME280;10836;53.068;18.234;2022-10-15T09:20:17;100581.97;;;14.57;91.45
21357;BME280;10836;53.068;18.234;2022-10-15T09:22:50;100589.72;;;14.83;91.08
21357;BME280;10836;53.068;18.234;2022-10-15T09:25:20;100590.63;;;15.19;88.56
21357;BME280;10836;53.068;18.234;2022-10-15T09:27:50;100598.66;;;15.57;88.93
21357;BME280;10836;53.068;18.234;2022-10-15T09:30:32;100595.72;;;15.89;86.13
21357;BME280;10836;53.068;18.234;2022-10-15T09:44:15;100601.75;;;14.08;94.99
21357;BME280;10836;53.068;18.234;2022-10-15T09:46:48;100597.81;;;13.95;96.87
21357;BME280;10836;53.068;18.234;2022-10-15T09:49:26;100594.16;;;14.19;96.41
21357;BME280;10836;53.068;18.234;2022-10-15T09:52:05;100600.78;;;14.31;96.72
21357;BME280;10836;53.068;18.234;2022-10-15T09:55:05;100598.78;;;14.37;95.82
21357;BME280;10836;53.068;18.234;2022-10-15T09:57:36;100600.41;;;14.38;95.77
21357;BME280;10836;53.068;18.234;2022-10-15T10:00:08;100597.13;;;14.36;97.33
21357;BME280;10836;53.068;18.234;2022-10-15T10:02:38;100601.94;;;14.63;97.77
21357;BME280;10836;53.068;18.234;2022-10-15T10:05:37;100598.47;;;14.85;97.06
21357;BME280;10836;53.068;18.234;2022-10-15T10:08:20;100595.81;;;14.80;96.92
21357;BME280;10836;53.068;18.234;2022-10-15T10:10:59;100605.00;;;14.89;97.16
21357;BME280;10836;53.068;18.234;2022-10-15T10:13:32;100603.47;;;15.10;94.14
21357;BME280;10836;53.068;18.234;2022-10-15T10:16:03;100609.03;;;14.50;94.73
21357;BME280;10836;53.068;18.234;2022-10-15T10:18:31;100604.34;;;14.32;96.45
21357;BME280;10836;53.068;18.234;2022-10-15T10:21:00;100610.13;;;14.17;98.06
21357;BME280;10836;53.068;18.234;2022-10-15T10:26:05;100611.69;;;14.04;100.00
21357;BME280;10836;53.068;18.234;2022-10-15T10:28:36;100606.22;;;13.85;100.00
21357;BME280;10836;53.068;18.234;2022-10-15T10:31:10;100606.41;;;14.08;100.00
21357;BME280;10836;53.068;18.234;2022-10-15T10:36:19;100602.31;;;14.24;99.34
21357;BME280;10836;53.068;18.234;2022-10-15T10:39:09;100601.47;;;14.42;99.63
21357;BME280;10836;53.068;18.234;2022-10-15T10:41:51;100600.75;;;14.18;100.00
21357;BME280;10836;53.068;18.234;2022-10-15T10:49:40;100598.66;;;14.75;96.32
21357;BME280;10836;53.068;18.234;2022-10-15T10:52:33;100595.22;;;14.83;96.69
21357;BME280;10836;53.068;18.234;2022-10-15T10:55:11;100590.72;;;15.42;94.16
21357;BME280;10836;53.068;18.234;2022-10-15T10:57:50;100592.09;;;15.67;90.76
21357;BME280;10836;53.068;18.234;2022-10-15T11:00:22;100586.41;;;15.63;90.05
21357;BME280;10836;53.068;18.234;2022-10-15T11:02:51;100594.16;;;15.61;89.11
21357;BME280;10836;53.068;18.234;2022-10-15T11:05:25;100593.56;;;15.37;92.00
21357;BME280;10836;53.068;18.234;2022-10-15T11:07:56;100598.56;;;15.84;89.30
21357;BME280;10836;53.068;18.234;2022-10-15T11:10:28;100587.19;;;16.22;90.08
21357;BME280;10836;53.068;18.234;2022-10-15T11:15:48;100581.69;;;15.63;88.58
21357;BME280;10836;53.068;18.234;2022-10-15T11:21:32;100577.22;;;15.54;89.74
21357;BME280;10836;53.068;18.234;2022-10-15T11:29:58;100591.09;;;15.49;90.57
21357;BME280;10836;53.068;18.234;2022-10-15T11:32:40;100593.75;;;15.40;91.84
21357;BME280;10836;53.068;18.234;2022-10-15T11:38:29;100600.28;;;15.30;92.52
21357;BME280;10836;53.068;18.234;2022-10-15T11:47:30;100598.78;;;14.97;96.37
21357;BME280;10836;53.068;18.234;2022-10-15T11:50:16;100595.25;;;15.10;96.87
21357;BME280;10836;53.068;18.234;2022-10-15T11:53:03;100584.44;;;15.14;95.39
21357;BME280;10836;53.068;18.234;2022-10-15T11:55:45;100590.13;;;15.04;95.48
21357;BME280;10836;53.068;18.234;2022-10-15T11:58:38;100595.41;;;15.27;95.53
21357;BME280;10836;53.068;18.234;2022-10-15T12:01:34;100593.97;;;15.44;95.28
21357;BME280;10836;53.068;18.234;2022-10-15T12:04:12;100591.72;;;15.59;94.22
21357;BME280;10836;53.068;18.234;2022-10-15T12:06:46;100597.56;;;15.80;93.06
21357;BME280;10836;53.068;18.234;2022-10-15T12:09:22;100595.31;;;15.82;90.82
21357;BME280;10836;53.068;18.234;2022-10-15T12:11:58;100587.78;;;15.74;90.66
21357;BME280;10836;53.068;18.234;2022-10-15T12:14:47;100593.69;;;15.81;91.04
21357;BME280;10836;53.068;18.234;2022-10-15T12:17:23;100587.19;;;15.77;91.77
21357;BME280;10836;53.068;18.234;2022-10-15T12:19:59;100591.22;;;15.93;90.62
21357;BME280;10836;53.068;18.234;2022-10-15T12:22:38;100586.44;;;15.85;91.19
21357;BME280;10836;53.068;18.234;2022-10-15T12:30:35;100591.16;;;15.71;91.30
21357;BME280;10836;53.068;18.234;2022-10-15T12:33:22;100590.94;;;16.04;89.47
21357;BME280;10836;53.068;18.234;2022-10-15T12:35:56;100595.72;;;15.89;90.58
21357;BME280;10836;53.068;18.234;2022-10-15T12:38:29;100588.81;;;15.78;90.82
21357;BME280;10836;53.068;18.234;2022-10-15T12:41:02;100584.47;;;16.00;90.49
21357;BME280;10836;53.068;18.234;2022-10-15T12:43:33;100587.31;;;16.39;90.54
21357;BME280;10836;53.068;18.234;2022-10-15T12:46:03;100590.56;;;16.41;88.83
21357;BME280;10836;53.068;18.234;2022-10-15T12:48:34;100597.16;;;16.32;89.23
21357;BME280;10836;53.068;18.234;2022-10-15T12:53:48;100582.50;;;16.53;87.48
21357;BME280;10836;53.068;18.234;2022-10-15T12:58:42;100588.38;;;16.60;87.87
21357;BME280;10836;53.068;18.234;2022-10-15T13:03:52;100583.53;;;16.97;87.40
21357;BME280;10836;53.068;18.234;2022-10-15T13:11:27;100571.84;;;16.91;84.63
21357;BME280;10836;53.068;18.234;2022-10-15T13:16:43;100569.59;;;16.62;87.22
21357;BME280;10836;53.068;18.234;2022-10-15T13:19:37;100577.94;;;16.71;88.13
21357;BME280;10836;53.068;18.234;2022-10-15T13:22:17;100575.63;;;16.65;88.46
21357;BME280;10836;53.068;18.234;2022-10-15T13:24:45;100568.13;;;16.87;86.65
21357;BME280;10836;53.068;18.234;2022-10-15T13:27:26;100578.16;;;16.92;86.42
21357;BME280;10836;53.068;18.234;2022-10-15T13:30:02;100574.72;;;16.78;86.34
21357;BME280;10836;53.068;18.234;2022-10-15T13:32:31;100577.97;;;16.80;86.96
21357;BME280;10836;53.068;18.234;2022-10-15T13:35:02;100581.88;;;16.56;88.43
21357;BME280;10836;53.068;18.234;2022-10-15T13:37:37;100571.84;;;16.60;88.87
21357;BME280;10836;53.068;18.234;2022-10-15T13:40:06;100570.63;;;16.67;88.15
21357;BME280;10836;53.068;18.234;2022-10-15T13:42:34;100580.25;;;16.55;90.34
21357;BME280;10836;53.068;18.234;2022-10-15T13:45:17;100569.16;;;16.38;90.52
21357;BME280;10836;53.068;18.234;2022-10-15T13:47:49;100574.66;;;16.38;90.24
21357;BME280;10836;53.068;18.234;2022-10-15T13:50:25;100580.53;;;16.45;90.09
21357;BME280;10836;53.068;18.234;2022-10-15T13:55:37;100566.53;;;16.33;92.29
21357;BME280;10836;53.068;18.234;2022-10-15T14:03:28;100573.84;;;16.15;93.28
21357;BME280;10836;53.068;18.234;2022-10-15T14:06:06;100576.03;;;16.05;94.26
21357;BME280;10836;53.068;18.234;2022-10-15T14:08:35;100576.69;;;16.02;94.66
21357;BME280;10836;53.068;18.234;2022-10-15T14:11:02;100575.16;;;16.18;94.42
21357;BME280;10836;53.068;18.234;2022-10-15T14:13:29;100574.28;;;16.31;94.37
21357;BME280;10836;53.068;18.234;2022-10-15T14:18:32;100582.94;;;16.16;94.76
21357;BME280;10836;53.068;18.234;2022-10-15T14:21:00;100576.81;;;15.96;95.77
21357;BME280;10836;53.068;18.234;2022-10-15T14:23:28;100579.69;;;16.14;95.05
21357;BME280;10836;53.068;18.234;2022-10-15T14:25:58;100576.03;;;16.05;95.76
21357;BME280;10836;53.068;18.234;2022-10-15T14:28:27;100580.25;;;16.24;94.71
21357;BME280;10836;53.068;18.234;2022-10-15T14:30:55;100568.41;;;16.24;94.87
21357;BME280;10836;53.068;18.234;2022-10-15T14:33:40;100574.41;;;16.04;94.13
21357;BME280;10836;53.068;18.234;2022-10-15T14:38:40;100585.44;;;16.04;95.06
21357;BME280;10836;53.068;18.234;2022-10-15T14:41:21;100573.91;;;15.79;95.13